Bainbridge Island, Washington
Current Conditions -  °F | °C
As of 6:53 AM on Wednesday 22 Oct 2014 (Local Time) from KBFI Reporting Station
Moderate Rain Moderate Rain  
Wind Chill: 59°   Ceiling: 2900
Heat Index: 59°   Visibility: 6mi
Dew Point: 53°   Wind: 9mph
Humidity: 81%   Direction: 170°S
Pressure: 29.69"   Gusts: NA
Location:  47.65°N, 122.53°W
Report Text: KBFI 221353Z 17008KT 6SM RA BKN029 OVC038 15/12 A2969 RMK AO2 SLP054 P0015 T01500117
Loading
Personal Weather Stations






























Interactive Weather Map
Tropical Storm Tracking
New forecast layout! Learn more

10-Day Weather Forecast

Advertisements
Track Severe Weather on mobile